Time,TemperatureF,DewpointF,PressureIn,WindDirection,WindDirectionDegrees,WindSpeedMPH,WindSpeedGustMPH,Humidity,HourlyPrecipIn,Conditions,Clouds,dailyrainin,SoftwareType,DateUTC
2013-04-15 00:13:00,53.7,47.0,29.86,NNE,18,0.0,6.0,77,0.00,,,0.00,weatherlink.com 1.10,2013-04-15 04:13:00,
2013-04-15 00:28:00,54.0,47.0,29.85,NW,307,1.0,6.0,76,0.00,,,0.00,weatherlink.com 1.10,2013-04-15 04:28:00,
2013-04-15 00:43:00,54.2,47.0,29.85,SSW,193,0.0,4.0,76,0.00,,,0.00,weatherlink.com 1.10,2013-04-15 04:43:00,
2013-04-15 00:58:00,54.1,47.0,29.86,SSE,165,0.0,5.0,76,0.00,,,0.00,weatherlink.com 1.10,2013-04-15 04:58:00,
2013-04-15 01:13:00,54.1,47.0,29.86,South,174,6.0,6.0,76,0.00,,,0.00,weatherlink.com 1.10,2013-04-15 05:13:00,
2013-04-15 01:28:00,53.9,47.0,29.86,SSE,160,1.0,4.0,76,0.00,,,0.00,weatherlink.com 1.10,2013-04-15 05:28:00,
2013-04-15 01:43:00,53.7,46.0,29.86,NNW,340,0.0,3.0,76,0.00,,,0.00,weatherlink.com 1.10,2013-04-15 05:43:00,
2013-04-15 01:58:00,53.4,46.0,29.86,SSW,208,0.0,3.0,77,0.00,,,0.00,weatherlink.com 1.10,2013-04-15 05:58:00,
2013-04-15 02:13:00,53.5,46.0,29.86,SSE,160,0.0,2.0,77,0.00,,,0.00,weatherlink.com 1.10,2013-04-15 06:13:00,
2013-04-15 02:28:00,53.6,46.0,29.86,South,177,0.0,4.0,76,0.00,,,0.00,weatherlink.com 1.10,2013-04-15 06:28:00,
2013-04-15 02:43:00,53.0,46.0,29.87,South,191,0.0,2.0,77,0.00,,,0.00,weatherlink.com 1.10,2013-04-15 06:43:00,
2013-04-15 02:58:00,52.2,46.0,29.88,SSE,154,0.0,1.0,79,0.00,,,0.00,weatherlink.com 1.10,2013-04-15 06:58:00,
2013-04-15 03:43:00,53.2,47.0,29.91,SSW,198,1.0,2.0,78,0.00,,,0.00,weatherlink.com 1.10,2013-04-15 07:43:00,
2013-04-15 03:58:00,54.1,47.0,29.90,West,263,0.0,2.0,76,0.00,,,0.00,weatherlink.com 1.10,2013-04-15 07:58:00,
2013-04-15 04:13:00,55.3,47.0,29.91,South,169,0.0,2.0,74,0.00,,,0.00,weatherlink.com 1.10,2013-04-15 08:13:00,
2013-04-15 04:28:00,56.2,47.0,29.92,WSW,243,0.0,7.0,72,0.00,,,0.00,weatherlink.com 1.10,2013-04-15 08:28:00,
2013-04-15 04:43:00,56.7,47.0,29.91,WSW,257,2.0,5.0,71,0.00,,,0.00,weatherlink.com 1.10,2013-04-15 08:43:00,
2013-04-15 04:58:00,57.2,48.0,29.91,West,277,1.0,4.0,71,0.00,,,0.00,weatherlink.com 1.10,2013-04-15 08:58:00,
2013-04-15 05:13:00,57.4,48.0,29.91,North,354,2.0,5.0,71,0.00,,,0.00,weatherlink.com 1.10,2013-04-15 09:13:00,
2013-04-15 05:28:00,57.6,48.0,29.90,SW,221,0.0,5.0,71,0.00,,,0.00,weatherlink.com 1.10,2013-04-15 09:28:00,
2013-04-15 05:43:00,57.4,48.0,29.90,North,358,0.0,4.0,72,0.00,,,0.00,weatherlink.com 1.10,2013-04-15 09:43:00,
2013-04-15 05:58:00,57.3,48.0,29.89,South,177,4.0,5.0,72,0.00,,,0.00,weatherlink.com 1.10,2013-04-15 09:58:00,
2013-04-15 06:13:00,57.3,48.0,29.88,SE,146,2.0,7.0,72,0.00,,,0.00,weatherlink.com 1.10,2013-04-15 10:13:00,
2013-04-15 06:28:00,56.8,48.0,29.88,SW,236,0.0,5.0,73,0.00,,,0.00,weatherlink.com 1.10,2013-04-15 10:28:00,
2013-04-15 06:43:00,56.3,48.0,29.89,South,184,0.0,6.0,74,0.00,,,0.00,weatherlink.com 1.10,2013-04-15 10:43:00,
2013-04-15 06:58:00,55.6,48.0,29.90,South,179,0.0,2.0,75,0.00,,,0.00,weatherlink.com 1.10,2013-04-15 10:58:00,
2013-04-15 07:14:00,54.7,48.0,29.91,SSE,163,0.0,2.0,77,0.00,,,0.00,weatherlink.com 1.10,2013-04-15 11:14:00,
2013-04-15 07:28:00,54.0,47.0,29.92,SSE,162,0.0,1.0,78,0.00,,,0.00,weatherlink.com 1.10,2013-04-15 11:28:00,
2013-04-15 07:43:00,53.6,48.0,29.91,SSW,204,0.0,1.0,80,0.00,,,0.00,weatherlink.com 1.10,2013-04-15 11:43:00,
2013-04-15 08:14:00,54.2,48.0,29.93,SSE,161,0.0,3.0,80,0.00,,,0.00,weatherlink.com 1.10,2013-04-15 12:14:00,
2013-04-15 08:29:00,54.9,49.0,29.93,SSW,194,1.0,5.0,79,0.00,,,0.00,weatherlink.com 1.10,2013-04-15 12:29:00,
2013-04-15 08:44:00,55.5,49.0,29.94,SSE,156,2.0,4.0,78,0.00,,,0.00,weatherlink.com 1.10,2013-04-15 12:44:00,
2013-04-15 09:14:00,56.1,49.0,29.93,South,172,2.0,4.0,78,0.00,,,0.00,weatherlink.com 1.10,2013-04-15 13:14:00,
2013-04-15 09:29:00,56.7,50.0,29.92,SSE,158,2.0,6.0,78,0.00,,,0.00,weatherlink.com 1.10,2013-04-15 13:29:00,
2013-04-15 09:44:00,57.3,50.0,29.93,SSW,205,0.0,5.0,77,0.00,,,0.00,weatherlink.com 1.10,2013-04-15 13:44:00,
2013-04-15 09:59:00,57.8,50.0,29.93,SSW,211,1.0,4.0,76,0.00,,,0.00,weatherlink.com 1.10,2013-04-15 13:59:00,
2013-04-15 10:14:00,58.2,51.0,29.93,SW,217,0.0,5.0,76,0.00,,,0.00,weatherlink.com 1.10,2013-04-15 14:14:00,
2013-04-15 10:29:00,58.9,51.0,29.93,SW,231,3.0,5.0,76,0.00,,,0.00,weatherlink.com 1.10,2013-04-15 14:29:00,
2013-04-15 10:44:00,59.3,51.0,29.92,SSE,156,2.0,6.0,75,0.00,,,0.00,weatherlink.com 1.10,2013-04-15 14:44:00,
2013-04-15 10:59:00,59.7,52.0,29.91,WSW,250,0.0,8.0,75,0.00,,,0.00,weatherlink.com 1.10,2013-04-15 14:59:00,
2013-04-15 11:14:00,60.0,52.0,29.92,SSW,211,2.0,5.0,75,0.00,,,0.00,weatherlink.com 1.10,2013-04-15 15:14:00,
2013-04-15 11:29:00,60.7,52.0,29.92,NW,311,1.0,7.0,74,0.00,,,0.00,weatherlink.com 1.10,2013-04-15 15:29:00,
2013-04-15 11:44:00,61.2,53.0,29.92,SSW,195,5.0,6.0,74,0.00,,,0.00,weatherlink.com 1.10,2013-04-15 15:44:00,
2013-04-15 11:59:00,61.6,53.0,29.93,WSW,243,1.0,5.0,74,0.00,,,0.00,weatherlink.com 1.10,2013-04-15 15:59:00,
2013-04-15 12:14:00,61.6,53.0,29.94,SW,236,3.0,4.0,74,0.00,,,0.00,weatherlink.com 1.10,2013-04-15 16:14:00,
2013-04-15 12:29:00,61.5,54.0,29.94,SSW,212,0.0,3.0,76,0.00,,,0.00,weatherlink.com 1.10,2013-04-15 16:29:00,
2013-04-15 12:44:00,61.6,54.0,29.95,SSW,201,0.0,5.0,76,0.00,,,0.00,weatherlink.com 1.10,2013-04-15 16:44:00,
2013-04-15 12:59:00,61.4,54.0,29.95,SW,229,0.0,2.0,76,0.00,,,0.00,weatherlink.com 1.10,2013-04-15 16:59:00,
2013-04-15 13:14:00,61.8,54.0,29.94,SSW,205,2.0,5.0,76,0.00,,,0.00,weatherlink.com 1.10,2013-04-15 17:14:00,
2013-04-15 13:29:00,62.2,55.0,29.93,SSE,151,0.0,3.0,76,0.00,,,0.00,weatherlink.com 1.10,2013-04-15 17:29:00,
2013-04-15 13:44:00,61.9,55.0,29.93,SE,131,1.0,6.0,77,0.00,,,0.00,weatherlink.com 1.10,2013-04-15 17:44:00,
2013-04-15 13:59:00,61.8,55.0,29.92,SW,218,1.0,5.0,78,0.00,,,0.00,weatherlink.com 1.10,2013-04-15 17:59:00,
2013-04-15 14:14:00,62.0,55.0,29.91,South,184,2.0,3.0,78,0.00,,,0.00,weatherlink.com 1.10,2013-04-15 18:14:00,
2013-04-15 14:29:00,61.9,55.0,29.93,SSW,201,0.0,2.0,78,0.00,,,0.00,weatherlink.com 1.10,2013-04-15 18:29:00,
2013-04-15 14:44:00,61.6,55.0,29.92,SSE,150,2.0,4.0,79,0.00,,,0.00,weatherlink.com 1.10,2013-04-15 18:44:00,
2013-04-15 14:59:00,61.8,55.0,29.92,WSW,249,2.0,5.0,79,0.00,,,0.00,weatherlink.com 1.10,2013-04-15 18:59:00,
2013-04-15 15:14:00,62.1,56.0,29.92,SSE,162,0.0,3.0,80,0.00,,,0.00,weatherlink.com 1.10,2013-04-15 19:14:00,
2013-04-15 15:29:00,65.0,57.0,29.91,SW,219,0.0,5.0,76,0.00,,,0.00,weatherlink.com 1.10,2013-04-15 19:29:00,
2013-04-15 15:44:00,67.1,57.0,29.90,SSW,201,4.0,6.0,71,0.00,,,0.00,weatherlink.com 1.10,2013-04-15 19:44:00,
2013-04-15 15:59:00,66.7,57.0,29.91,SSW,203,0.0,5.0,71,0.00,,,0.00,weatherlink.com 1.10,2013-04-15 19:59:00,
2013-04-15 16:14:00,64.9,56.0,29.92,SSW,203,0.0,6.0,73,0.00,,,0.00,weatherlink.com 1.10,2013-04-15 20:14:00,
2013-04-15 16:29:00,64.5,57.0,29.91,SSW,193,1.0,3.0,76,0.00,,,0.00,weatherlink.com 1.10,2013-04-15 20:29:00,
2013-04-15 16:44:00,64.2,57.0,29.92,SSW,192,0.0,2.0,76,0.00,,,0.00,weatherlink.com 1.10,2013-04-15 20:44:00,
2013-04-15 16:59:00,63.6,56.0,29.92,SSE,148,1.0,4.0,77,0.00,,,0.00,weatherlink.com 1.10,2013-04-15 20:59:00,
2013-04-15 17:14:00,62.8,57.0,29.93,SW,221,0.0,4.0,80,0.00,,,0.00,weatherlink.com 1.10,2013-04-15 21:14:00,
2013-04-15 17:29:00,62.2,56.0,29.93,SSW,194,1.0,4.0,81,0.00,,,0.00,weatherlink.com 1.10,2013-04-15 21:29:00,
2013-04-15 17:44:00,62.0,56.0,29.93,SSW,204,0.0,5.0,82,0.00,,,0.00,weatherlink.com 1.10,2013-04-15 21:44:00,
2013-04-15 17:59:00,61.8,57.0,29.92,South,186,0.0,3.0,83,0.00,,,0.00,weatherlink.com 1.10,2013-04-15 21:59:00,
2013-04-15 18:14:00,61.6,57.0,29.92,SSW,202,0.0,4.0,85,0.00,,,0.00,weatherlink.com 1.10,2013-04-15 22:14:00,
2013-04-15 18:29:00,60.9,57.0,29.91,SSE,166,0.0,1.0,88,0.00,,,0.00,weatherlink.com 1.10,2013-04-15 22:29:00,
2013-04-15 18:44:00,60.4,57.0,29.93,SSW,208,0.0,3.0,89,0.01,,,0.01,weatherlink.com 1.10,2013-04-15 22:44:00,
2013-04-15 18:59:00,59.8,57.0,29.94,SSW,205,0.0,2.0,91,0.03,,,0.03,weatherlink.com 1.10,2013-04-15 22:59:00,
2013-04-15 19:14:00,59.3,57.0,29.93,SSW,195,0.0,1.0,93,0.06,,,0.06,weatherlink.com 1.10,2013-04-15 23:14:00,
2013-04-15 19:29:00,58.9,57.0,29.93,SSW,195,0.0,0.0,94,0.07,,,0.07,weatherlink.com 1.10,2013-04-15 23:29:00,
2013-04-15 19:44:00,58.7,57.0,29.93,SSW,195,0.0,0.0,95,0.06,,,0.07,weatherlink.com 1.10,2013-04-15 23:44:00,
2013-04-15 19:59:00,58.5,57.0,29.93,SSE,149,0.0,0.0,96,0.10,,,0.13,weatherlink.com 1.10,2013-04-15 23:59:00,
2013-04-15 20:15:00,58.3,57.0,29.93,South,187,0.0,1.0,96,0.11,,,0.17,weatherlink.com 1.10,2013-04-16 00:15:00,
2013-04-15 20:30:00,58.1,57.0,29.95,West,266,0.0,1.0,97,0.13,,,0.20,weatherlink.com 1.10,2013-04-16 00:30:00,
2013-04-15 20:45:00,57.9,57.0,29.93,NNW,341,0.0,1.0,97,0.17,,,0.25,weatherlink.com 1.10,2013-04-16 00:45:00,
2013-04-15 21:00:00,57.4,57.0,29.94,West,276,0.0,1.0,97,0.12,,,0.25,weatherlink.com 1.10,2013-04-16 01:00:00,
2013-04-15 21:15:00,57.1,56.0,29.94,West,276,0.0,0.0,97,0.08,,,0.25,weatherlink.com 1.10,2013-04-16 01:15:00,
2013-04-15 21:30:00,57.0,57.0,29.95,West,275,0.0,0.0,98,0.07,,,0.27,weatherlink.com 1.10,2013-04-16 01:30:00,
2013-04-15 21:45:00,55.4,54.0,29.94,NNE,18,0.0,2.0,94,0.04,,,0.29,weatherlink.com 1.10,2013-04-16 01:45:00,
2013-04-15 22:00:00,53.3,52.0,29.96,NNE,32,0.0,2.0,95,0.04,,,0.29,weatherlink.com 1.10,2013-04-16 02:00:00,
2013-04-15 22:15:00,52.0,51.0,29.96,West,259,0.0,1.0,96,0.05,,,0.30,weatherlink.com 1.10,2013-04-16 02:15:00,
2013-04-15 22:30:00,51.3,50.0,29.98,West,271,2.0,4.0,96,0.04,,,0.31,weatherlink.com 1.10,2013-04-16 02:30:00,
2013-04-15 22:45:00,49.8,49.0,29.98,NNE,15,0.0,3.0,95,0.03,,,0.32,weatherlink.com 1.10,2013-04-16 02:45:00,
2013-04-15 23:00:00,48.1,47.0,29.99,NNE,27,2.0,2.0,95,0.03,,,0.32,weatherlink.com 1.10,2013-04-16 03:00:00,
2013-04-15 23:15:00,47.2,46.0,29.98,NE,41,0.0,1.0,95,0.02,,,0.32,weatherlink.com 1.10,2013-04-16 03:15:00,
2013-04-15 23:30:00,46.7,46.0,29.99,North,6,0.0,2.0,96,0.01,,,0.32,weatherlink.com 1.10,2013-04-16 03:30:00,
2013-04-15 23:45:00,46.1,45.0,29.99,North,5,0.0,2.0,96,0.00,,,0.32,weatherlink.com 1.10,2013-04-16 03:45:00,